Time;durP1;ratioP1;P1;durP2;ratioP2;P2;SDS_P1;SDS_P2;PMS_P1;PMS_P2;Temp;Humidity;BMP_temperature;BMP_pressure;BME280_temperature;BME280_humidity;BME280_pressure;Samples;Min_cycle;Max_cycle;Signal;HPM_P1;HPM_P2
2022/12/05 00:01:27;;;;;;;32.83;16.30;;;3.50;99.90;;;;;;5059276;28;20222;-56
2022/12/05 00:04:01;;;;;;;30.00;15.90;;;3.50;99.90;;;;;;5060273;28;20277;-56
2022/12/05 00:06:29;;;;;;;31.90;16.53;;;3.50;99.90;;;;;;5056392;28;20198;-55
2022/12/05 00:08:56;;;;;;;29.33;15.97;;;3.60;99.90;;;;;;5059612;28;20214;-56
2022/12/05 00:11:26;;;;;;;31.67;16.83;;;3.60;99.90;;;;;;5057476;28;20232;-61
2022/12/05 00:13:55;;;;;;;29.27;16.07;;;3.60;99.90;;;;;;5057285;28;20310;-58
2022/12/05 00:16:24;;;;;;;30.30;17.23;;;3.50;99.90;;;;;;5059841;28;22312;-56
2022/12/05 00:18:52;;;;;;;39.23;18.13;;;3.70;99.90;;;;;;5049705;28;20209;-56
2022/12/05 00:21:22;;;;;;;28.87;16.93;;;3.70;99.90;;;;;;5051148;28;20294;-56
2022/12/05 00:23:49;;;;;;;31.63;17.37;;;3.80;99.90;;;;;;5057872;28;20728;-55
2022/12/05 00:26:17;;;;;;;33.20;16.93;;;3.80;99.90;;;;;;5052421;28;20217;-56
2022/12/05 00:28:44;;;;;;;30.33;15.83;;;3.80;99.90;;;;;;5057762;28;20244;-56
2022/12/05 00:31:15;;;;;;;28.63;17.57;;;3.80;99.90;;;;;;5057518;28;20622;-56
2022/12/05 00:33:42;;;;;;;32.93;17.30;;;3.80;99.90;;;;;;5056596;28;20208;-55
2022/12/05 00:36:12;;;;;;;32.60;16.87;;;3.90;99.90;;;;;;5054873;28;20205;-56
2022/12/05 00:38:40;;;;;;;30.70;17.00;;;3.80;99.90;;;;;;5056321;28;20311;-55
2022/12/05 00:41:09;;;;;;;32.67;17.20;;;3.70;99.90;;;;;;5054938;28;20306;-56
2022/12/05 00:43:37;;;;;;;29.33;16.20;;;3.80;99.90;;;;;;5053460;28;20239;-56
2022/12/05 00:46:10;;;;;;;31.03;17.77;;;3.80;99.90;;;;;;5056081;28;20210;-55
2022/12/05 00:48:37;;;;;;;26.60;15.80;;;3.80;99.90;;;;;;5055099;28;20519;-54
2022/12/05 00:51:13;;;;;;;28.67;17.33;;;3.80;99.90;;;;;;5059255;28;20219;-56
2022/12/05 00:53:41;;;;;;;27.27;15.77;;;3.70;99.90;;;;;;5056001;28;20703;-54
2022/12/05 00:56:14;;;;;;;33.97;16.77;;;3.80;99.90;;;;;;5055696;28;20598;-56
2022/12/05 00:58:41;;;;;;;33.23;17.27;;;3.80;99.90;;;;;;5056753;28;20211;-56
2022/12/05 01:01:18;;;;;;;28.73;16.33;;;3.80;99.90;;;;;;5055445;28;20570;-55
2022/12/05 01:03:46;;;;;;;29.53;16.67;;;3.70;99.90;;;;;;5059053;28;21777;-56
2022/12/05 01:06:14;;;;;;;28.97;17.07;;;3.80;99.90;;;;;;5055365;28;20281;-55
2022/12/05 01:08:41;;;;;;;29.93;16.57;;;3.90;99.90;;;;;;5057179;28;20235;-57
2022/12/05 01:11:15;;;;;;;28.17;16.07;;;4.00;99.90;;;;;;5059431;28;20761;-56
2022/12/05 01:13:42;;;;;;;32.47;17.27;;;4.10;99.90;;;;;;5059742;28;20406;-55
2022/12/05 01:16:17;;;;;;;32.30;16.63;;;3.90;99.90;;;;;;5055129;28;20198;-58
2022/12/05 01:18:45;;;;;;;29.13;16.27;;;3.80;99.90;;;;;;5058502;28;20230;-55
2022/12/05 01:21:12;;;;;;;34.83;17.33;;;3.90;99.90;;;;;;5056052;28;20709;-56
2022/12/05 01:23:39;;;;;;;28.43;16.17;;;3.90;99.90;;;;;;5056667;28;20206;-56
2022/12/05 01:26:09;;;;;;;30.87;17.43;;;3.80;99.90;;;;;;5055769;28;20291;-56
2022/12/05 01:28:36;;;;;;;30.93;17.17;;;3.80;99.90;;;;;;5056275;28;20327;-55
2022/12/05 01:31:06;;;;;;;35.93;17.70;;;3.90;99.90;;;;;;5057183;28;20199;-57
2022/12/05 01:33:34;;;;;;;25.47;15.20;;;4.00;99.90;;;;;;5054556;28;20204;-57
2022/12/05 01:36:02;;;;;;;31.47;16.90;;;4.00;99.90;;;;;;5049868;28;20771;-56
2022/12/05 01:38:29;;;;;;;29.50;16.83;;;4.00;99.90;;;;;;5050533;28;20204;-57
2022/12/05 01:41:00;;;;;;;30.10;16.97;;;3.90;99.90;;;;;;5056019;28;20243;-56
2022/12/05 01:43:27;;;;;;;31.80;16.80;;;4.10;99.90;;;;;;5057817;28;20217;-57
2022/12/05 01:45:55;;;;;;;30.97;17.90;;;4.10;99.90;;;;;;5053489;28;20292;-55
2022/12/05 01:48:26;;;;;;;31.13;16.73;;;4.00;99.90;;;;;;5055238;28;20190;-55
2022/12/05 01:50:54;;;;;;;30.20;17.47;;;4.10;99.90;;;;;;5047527;28;20232;-55
2022/12/05 01:53:21;;;;;;;32.40;17.23;;;4.10;99.90;;;;;;5048377;28;20218;-55
2022/12/05 01:55:49;;;;;;;29.83;16.37;;;4.10;99.90;;;;;;5051734;28;20301;-56
2022/12/05 01:58:17;;;;;;;29.93;17.17;;;4.10;99.90;;;;;;5050641;28;20276;-56
2022/12/05 02:00:44;;;;;;;31.87;17.13;;;4.10;99.90;;;;;;5050347;28;20221;-55
2022/12/05 02:03:19;;;;;;;32.90;17.73;;;4.00;99.90;;;;;;5035388;28;20218;-56
2022/12/05 02:05:50;;;;;;;31.70;17.33;;;4.00;99.90;;;;;;5049303;28;20774;-56
2022/12/05 02:08:17;;;;;;;33.63;18.43;;;4.00;99.90;;;;;;5050880;28;20227;-56
2022/12/05 02:10:53;;;;;;;31.13;17.53;;;4.00;99.90;;;;;;5050643;28;20222;-56
2022/12/05 02:13:44;;;;;;;31.73;18.83;;;4.10;99.90;;;;;;5050760;28;20253;-56
2022/12/05 02:16:24;;;;;;;31.40;18.47;;;4.10;99.90;;;;;;5051056;28;20204;-55
2022/12/05 02:19:10;;;;;;;30.03;18.23;;;4.00;99.90;;;;;;5052265;28;20195;-56
2022/12/05 02:21:56;;;;;;;34.27;18.80;;;4.00;99.90;;;;;;5049038;28;20217;-58
2022/12/05 02:24:37;;;;;;;32.97;18.17;;;4.00;99.90;;;;;;5047201;28;20571;-56
2022/12/05 02:27:29;;;;;;;36.90;19.53;;;4.10;99.90;;;;;;5050415;28;20295;-56
2022/12/05 02:30:12;;;;;;;30.63;17.27;;;4.10;99.90;;;;;;5049269;28;20204;-55
2022/12/05 02:33:03;;;;;;;35.97;17.70;;;4.10;99.90;;;;;;5051474;28;20685;-54
2022/12/05 02:35:54;;;;;;;33.07;17.57;;;4.20;99.90;;;;;;5050497;28;20286;-56
2022/12/05 02:38:35;;;;;;;36.17;19.50;;;4.10;99.90;;;;;;5047535;28;20209;-56
2022/12/05 02:41:36;;;;;;;38.30;18.23;;;4.20;99.90;;;;;;5051836;28;20218;-55
2022/12/05 02:44:14;;;;;;;29.73;17.93;;;4.20;99.90;;;;;;5051852;28;20287;-56
2022/12/05 02:46:43;;;;;;;33.47;18.50;;;4.10;99.90;;;;;;5042790;28;20201;-57
2022/12/05 02:49:15;;;;;;;30.83;17.83;;;4.20;99.90;;;;;;5053741;28;20291;-56
2022/12/05 02:51:45;;;;;;;34.47;17.60;;;4.20;99.90;;;;;;5053358;28;20205;-55
2022/12/05 02:54:19;;;;;;;31.17;17.90;;;4.20;99.90;;;;;;5052447;28;20227;-56
2022/12/05 02:56:48;;;;;;;33.60;17.40;;;4.20;99.90;;;;;;5053287;28;20214;-56
2022/12/05 02:59:14;;;;;;;31.30;17.33;;;4.20;99.90;;;;;;5051088;28;20687;-56
2022/12/05 03:01:48;;;;;;;31.87;18.77;;;4.20;99.90;;;;;;5066063;28;20297;-56
2022/12/05 03:04:18;;;;;;;35.07;19.73;;;4.20;99.90;;;;;;5050492;28;20208;-55
2022/12/05 03:06:57;;;;;;;29.87;16.23;;;4.10;99.90;;;;;;5052480;28;20672;-55
2022/12/05 03:09:35;;;;;;;34.90;18.17;;;4.10;99.90;;;;;;5054428;28;20287;-56
2022/12/05 03:12:17;;;;;;;33.53;18.10;;;4.20;99.90;;;;;;5055811;28;20247;-55
2022/12/05 03:14:48;;;;;;;37.00;19.33;;;4.20;99.90;;;;;;5054227;28;20217;-56
2022/12/05 03:17:22;;;;;;;36.50;18.33;;;4.10;99.90;;;;;;5051817;28;20220;-54
2022/12/05 03:20:03;;;;;;;35.20;18.27;;;4.10;99.90;;;;;;5051715;28;20203;-56
2022/12/05 03:23:08;;;;;;;39.07;18.93;;;4.10;99.90;;;;;;5056640;28;20298;-57
2022/12/05 03:25:44;;;;;;;33.67;16.77;;;4.20;99.90;;;;;;5040894;28;20212;-55
2022/12/05 03:28:28;;;;;;;34.83;17.77;;;4.10;99.90;;;;;;5052312;28;20230;-55
2022/12/05 03:31:01;;;;;;;35.40;19.53;;;4.10;99.90;;;;;;5053021;28;20228;-55
2022/12/05 03:33:36;;;;;;;37.33;18.37;;;4.10;99.90;;;;;;5053401;28;20217;-56
2022/12/05 03:36:14;;;;;;;32.53;18.73;;;4.20;99.90;;;;;;5052722;28;20218;-56
2022/12/05 03:39:01;;;;;;;36.03;17.87;;;4.20;99.90;;;;;;5050370;28;20210;-56
2022/12/05 03:41:40;;;;;;;32.13;16.83;;;4.20;99.90;;;;;;5051912;28;20825;-55
2022/12/05 03:44:25;;;;;;;32.77;18.27;;;4.20;99.90;;;;;;5052635;28;20202;-58
2022/12/05 03:47:09;;;;;;;33.80;18.83;;;4.20;99.90;;;;;;5053534;28;20203;-56
2022/12/05 03:49:42;;;;;;;37.60;18.63;;;4.20;99.90;;;;;;5034388;28;20322;-56
2022/12/05 03:52:23;;;;;;;33.10;18.93;;;4.20;99.90;;;;;;5054827;28;20206;-54
2022/12/05 03:54:58;;;;;;;36.67;19.77;;;4.20;99.90;;;;;;5051229;28;20296;-55
2022/12/05 03:57:30;;;;;;;36.00;18.80;;;4.20;99.90;;;;;;5057211;28;20569;-56
2022/12/05 04:00:04;;;;;;;33.47;17.23;;;4.30;99.90;;;;;;5058951;28;20285;-55
2022/12/05 04:02:54;;;;;;;36.20;18.80;;;4.30;99.90;;;;;;5059924;28;20271;-55
2022/12/05 04:05:31;;;;;;;32.13;18.67;;;4.30;99.90;;;;;;5056360;28;20250;-56
2022/12/05 04:08:10;;;;;;;33.03;18.33;;;4.30;99.90;;;;;;5058459;28;20629;-56
2022/12/05 04:10:49;;;;;;;32.47;17.60;;;4.20;99.90;;;;;;5058289;28;20230;-55
2022/12/05 04:13:40;;;;;;;35.97;18.27;;;4.20;99.90;;;;;;5056003;28;20267;-55
2022/12/05 04:19:07;;;;;;;32.97;17.73;;;4.30;99.90;;;;;;5058619;28;20296;-55
2022/12/05 04:21:43;;;;;;;35.43;17.17;;;4.30;99.90;;;;;;5054865;28;20262;-55
2022/12/05 04:27:11;;;;;;;33.43;17.90;;;4.20;99.90;;;;;;5060372;28;20208;-56
2022/12/05 04:30:04;;;;;;;33.10;18.63;;;4.30;99.90;;;;;;5055639;28;20290;-56
2022/12/05 04:33:04;;;;;;;33.53;18.07;;;4.30;99.90;;;;;;5057958;28;20232;-56
2022/12/05 04:35:35;;;;;;;32.20;17.53;;;4.20;99.90;;;;;;5040876;28;20635;-56
2022/12/05 04:38:26;;;;;;;33.80;18.10;;;4.20;99.90;;;;;;5057511;28;20683;-56
2022/12/05 04:40:58;;;;;;;33.33;18.57;;;4.30;99.90;;;;;;5057371;28;20971;-55
2022/12/05 04:43:27;;;;;;;31.83;17.03;;;4.20;99.90;;;;;;5059487;28;20658;-56
2022/12/05 04:45:57;;;;;;;31.47;15.70;;;4.30;99.90;;;;;;5059435;28;20205;-57
2022/12/05 04:48:26;;;;;;;32.30;16.73;;;4.30;99.90;;;;;;5060067;28;20212;-56
2022/12/05 04:50:54;;;;;;;31.83;17.23;;;4.20;99.90;;;;;;5059240;28;20220;-56
2022/12/05 04:53:26;;;;;;;31.80;16.63;;;4.30;99.90;;;;;;5059257;28;20580;-56
2022/12/05 04:55:56;;;;;;;34.93;16.40;;;4.30;99.90;;;;;;5059117;28;20205;-55
2022/12/05 04:58:25;;;;;;;35.97;16.37;;;4.20;99.90;;;;;;5060247;28;20671;-56
2022/12/05 05:01:03;;;;;;;27.73;15.73;;;4.20;99.90;;;;;;5061612;28;20224;-56
2022/12/05 05:03:35;;;;;;;31.90;16.27;;;4.30;99.90;;;;;;5058255;28;20346;-54
2022/12/05 05:06:03;;;;;;;30.43;16.90;;;4.40;99.90;;;;;;5056540;28;20286;-55
2022/12/05 05:08:30;;;;;;;28.23;15.73;;;4.30;99.90;;;;;;5064762;28;20201;-56
2022/12/05 05:11:13;;;;;;;29.47;15.33;;;4.30;99.90;;;;;;5054650;28;20305;-56
2022/12/05 05:13:40;;;;;;;29.93;16.87;;;4.40;99.90;;;;;;5058690;28;20231;-55
2022/12/05 05:16:07;;;;;;;31.70;15.47;;;4.40;99.90;;;;;;5056572;28;20742;-56
2022/12/05 05:18:33;;;;;;;32.30;15.63;;;4.30;99.90;;;;;;5054990;28;20207;-56
2022/12/05 05:21:00;;;;;;;28.90;15.77;;;4.30;99.90;;;;;;5052307;28;20211;-56
2022/12/05 05:23:27;;;;;;;27.47;14.77;;;4.30;99.90;;;;;;5056571;28;20521;-55
2022/12/05 05:25:55;;;;;;;25.97;15.57;;;4.30;99.90;;;;;;5070968;28;20205;-56
2022/12/05 05:28:22;;;;;;;29.50;15.60;;;4.30;99.90;;;;;;5038736;28;20226;-55
2022/12/05 05:30:49;;;;;;;26.93;15.73;;;4.30;99.90;;;;;;5056582;28;20669;-56
2022/12/05 05:33:16;;;;;;;28.17;15.00;;;4.40;99.90;;;;;;5057745;28;20290;-55
2022/12/05 05:35:42;;;;;;;26.50;15.37;;;4.30;99.90;;;;;;5056810;28;20213;-55
2022/12/05 05:38:09;;;;;;;28.20;16.10;;;4.30;99.90;;;;;;5057372;28;20197;-55
2022/12/05 05:40:36;;;;;;;29.40;15.13;;;4.40;99.90;;;;;;5058353;28;20205;-55
2022/12/05 05:43:03;;;;;;;29.87;15.60;;;4.40;99.90;;;;;;5057880;28;20204;-56
2022/12/05 05:45:30;;;;;;;27.03;15.70;;;4.30;99.90;;;;;;5040651;28;20296;-56
2022/12/05 05:47:57;;;;;;;30.57;15.33;;;4.40;99.90;;;;;;5057432;28;20197;-56
2022/12/05 05:50:23;;;;;;;25.13;14.97;;;4.40;99.90;;;;;;5056972;28;20208;-56
2022/12/05 05:52:50;;;;;;;30.37;16.03;;;4.40;99.90;;;;;;5055114;28;20210;-56
2022/12/05 05:55:17;;;;;;;29.30;15.07;;;4.40;99.90;;;;;;5040611;28;20210;-56
2022/12/05 05:57:44;;;;;;;29.23;15.20;;;4.50;99.90;;;;;;5070319;28;20324;-56
2022/12/05 06:00:12;;;;;;;27.03;14.27;;;4.40;99.90;;;;;;5056031;28;20710;-55
2022/12/05 06:02:39;;;;;;;31.40;15.70;;;4.30;99.90;;;;;;5056990;28;20239;-56
2022/12/05 06:05:06;;;;;;;33.50;16.00;;;4.40;99.90;;;;;;5055417;28;20621;-55
2022/12/05 06:07:33;;;;;;;30.63;16.10;;;4.40;99.90;;;;;;5055109;28;20209;-55
2022/12/05 06:10:00;;;;;;;27.90;15.43;;;4.50;99.90;;;;;;5058727;28;21718;-56
2022/12/05 06:12:27;;;;;;;29.07;16.10;;;4.50;99.90;;;;;;5053519;28;20204;-55
2022/12/05 06:14:54;;;;;;;27.23;15.50;;;4.50;99.90;;;;;;5056952;28;20302;-55
2022/12/05 06:17:21;;;;;;;28.00;15.40;;;4.50;99.90;;;;;;5056987;28;20301;-57
2022/12/05 06:19:48;;;;;;;26.30;15.10;;;4.60;99.90;;;;;;5037463;28;20201;-56
2022/12/05 06:22:14;;;;;;;30.47;15.80;;;4.60;99.90;;;;;;5056923;28;20260;-55
2022/12/05 06:24:41;;;;;;;30.63;17.50;;;4.60;99.90;;;;;;5056175;28;20521;-56
2022/12/05 06:27:08;;;;;;;29.37;16.13;;;4.70;99.90;;;;;;5060172;28;20276;-56
2022/12/05 06:29:35;;;;;;;25.93;14.70;;;4.60;99.90;;;;;;5057469;28;20199;-56
2022/12/05 06:32:02;;;;;;;29.73;16.17;;;4.70;99.90;;;;;;5056709;28;20224;-56
2022/12/05 06:34:31;;;;;;;25.60;14.37;;;4.70;99.90;;;;;;5058035;28;20244;-56
2022/12/05 06:36:58;;;;;;;29.67;15.80;;;4.60;99.90;;;;;;5053947;28;20224;-57
2022/12/05 06:39:25;;;;;;;26.47;15.20;;;4.70;99.90;;;;;;5050067;28;20214;-56
2022/12/05 06:41:52;;;;;;;25.33;15.23;;;4.70;99.90;;;;;;5054919;28;20223;-56
2022/12/05 06:44:20;;;;;;;24.60;15.17;;;4.60;99.90;;;;;;5055510;28;21631;-55
2022/12/05 06:46:48;;;;;;;29.10;14.93;;;4.50;99.90;;;;;;5037257;28;20245;-56
2022/12/05 06:49:14;;;;;;;25.60;15.77;;;4.60;99.90;;;;;;5051091;28;20210;-55
2022/12/05 06:51:41;;;;;;;26.47;14.43;;;4.60;99.90;;;;;;4688739;28;9999663;-55
2022/12/05 06:54:10;;;;;;;31.23;15.40;;;4.70;99.90;;;;;;5045823;28;20202;-55
2022/12/05 06:56:39;;;;;;;27.60;15.40;;;4.70;99.90;;;;;;5047945;28;20200;-60
2022/12/05 06:59:06;;;;;;;30.73;15.33;;;4.60;99.90;;;;;;5060939;28;20199;-56
2022/12/05 07:01:42;;;;;;;26.03;14.77;;;4.60;99.90;;;;;;5041017;28;20225;-58
2022/12/05 07:04:19;;;;;;;25.90;16.03;;;4.60;99.90;;;;;;5043924;28;20209;-56
2022/12/05 07:06:47;;;;;;;26.10;15.33;;;4.70;99.90;;;;;;5047225;28;20335;-56
2022/12/05 07:09:44;;;;;;;25.23;13.87;;;4.70;99.90;;;;;;5047150;28;20264;-56
2022/12/05 07:12:15;;;;;;;27.13;14.63;;;4.70;99.90;;;;;;5048824;28;20199;-55
2022/12/05 07:14:42;;;;;;;26.43;14.10;;;4.70;99.90;;;;;;5050618;28;20288;-55
2022/12/05 07:17:16;;;;;;;26.20;14.73;;;4.70;99.90;;;;;;5046278;28;20343;-56
2022/12/05 07:19:45;;;;;;;27.67;15.03;;;4.70;99.90;;;;;;5027272;28;20215;-56
2022/12/05 07:22:12;;;;;;;27.87;16.20;;;4.70;99.90;;;;;;5049127;28;20223;-56
2022/12/05 07:24:42;;;;;;;21.50;13.93;;;4.70;99.90;;;;;;5053008;28;20752;-55
2022/12/05 07:27:09;;;;;;;26.37;15.13;;;4.70;99.90;;;;;;5050654;28;20217;-56
2022/12/05 07:29:36;;;;;;;28.03;14.93;;;4.70;99.90;;;;;;5050765;28;20227;-55
2022/12/05 07:32:03;;;;;;;25.07;15.07;;;4.80;99.90;;;;;;5053101;28;20297;-56
2022/12/05 07:34:30;;;;;;;25.30;15.43;;;4.70;99.90;;;;;;5052744;28;20205;-57
2022/12/05 07:36:57;;;;;;;26.43;14.63;;;4.80;99.90;;;;;;5051546;28;20301;-55
2022/12/05 07:39:23;;;;;;;29.07;15.03;;;4.80;99.90;;;;;;5032983;28;20300;-56
2022/12/05 07:41:50;;;;;;;23.20;13.77;;;4.80;99.90;;;;;;5068667;28;20695;-56
2022/12/05 07:44:17;;;;;;;27.83;14.17;;;4.80;99.90;;;;;;5055296;28;20286;-56
2022/12/05 07:46:44;;;;;;;27.50;14.90;;;4.70;99.90;;;;;;5061270;28;20192;-56
2022/12/05 07:49:11;;;;;;;28.87;14.93;;;4.70;99.90;;;;;;5070218;28;20215;-54
2022/12/05 07:51:37;;;;;;;27.83;14.27;;;4.80;99.90;;;;;;5054527;28;20568;-56
2022/12/05 07:54:05;;;;;;;24.20;14.00;;;4.90;99.90;;;;;;5052710;28;20204;-56
2022/12/05 07:56:32;;;;;;;25.97;13.27;;;4.90;99.90;;;;;;5055176;28;20260;-56
2022/12/05 07:58:59;;;;;;;25.40;15.10;;;4.90;99.90;;;;;;5053650;28;20256;-57
2022/12/05 08:01:28;;;;;;;25.03;14.30;;;4.80;99.90;;;;;;5054441;28;20197;-56
2022/12/05 08:03:58;;;;;;;26.40;15.53;;;4.80;99.90;;;;;;5055609;28;20203;-56
2022/12/05 08:06:29;;;;;;;24.87;13.77;;;4.90;99.90;;;;;;5050315;28;20204;-56
2022/12/05 08:08:57;;;;;;;23.13;13.53;;;4.90;99.90;;;;;;5051882;28;20200;-55
2022/12/05 08:11:29;;;;;;;23.73;14.47;;;5.00;99.90;;;;;;5053085;28;20650;-55
2022/12/05 08:13:57;;;;;;;25.47;14.63;;;5.00;99.90;;;;;;5054823;28;20612;-56
2022/12/05 08:16:27;;;;;;;26.03;13.80;;;4.90;99.90;;;;;;5069564;28;20199;-57
2022/12/05 08:19:06;;;;;;;22.90;13.93;;;5.00;99.90;;;;;;5053651;28;20211;-55
2022/12/05 08:21:33;;;;;;;24.93;14.07;;;5.00;99.90;;;;;;5047706;28;22269;-55
2022/12/05 08:24:03;;;;;;;22.87;13.70;;;5.00;99.90;;;;;;5037102;28;20287;-56
2022/12/05 08:26:31;;;;;;;23.83;14.10;;;4.90;99.90;;;;;;5051964;28;20244;-55
2022/12/05 08:28:59;;;;;;;23.93;15.30;;;5.00;99.90;;;;;;5063000;28;20252;-54
2022/12/05 08:31:29;;;;;;;22.93;14.80;;;5.00;99.90;;;;;;5053858;28;20659;-54
2022/12/05 08:33:57;;;;;;;23.37;13.40;;;5.10;99.90;;;;;;5048116;28;20544;-57
2022/12/05 08:36:27;;;;;;;24.23;14.60;;;5.10;99.90;;;;;;5049641;28;20246;-56
2022/12/05 08:38:59;;;;;;;24.17;14.43;;;5.20;99.90;;;;;;5048238;28;20205;-55
2022/12/05 08:41:28;;;;;;;23.87;14.17;;;5.10;99.90;;;;;;5049202;28;20203;-56
2022/12/05 08:43:57;;;;;;;20.30;12.47;;;5.20;99.90;;;;;;5050719;28;20286;-54
2022/12/05 08:46:24;;;;;;;20.87;13.23;;;5.20;99.90;;;;;;5038954;28;20285;-58
2022/12/05 08:48:51;;;;;;;25.57;13.40;;;5.20;99.90;;;;;;5038053;28;20234;-57
2022/12/05 08:51:18;;;;;;;23.83;13.40;;;5.20;99.90;;;;;;5062678;28;20250;-57
2022/12/05 08:53:45;;;;;;;22.20;14.10;;;5.10;99.90;;;;;;5048585;28;20203;-57
2022/12/05 08:56:12;;;;;;;21.10;13.83;;;5.20;99.90;;;;;;5045598;28;20240;-57
2022/12/05 08:58:40;;;;;;;23.07;13.47;;;5.10;99.90;;;;;;5050229;28;20568;-56
2022/12/05 09:01:12;;;;;;;24.53;14.57;;;5.10;99.90;;;;;;5049864;28;20505;-56
2022/12/05 09:03:40;;;;;;;22.77;13.37;;;5.10;99.90;;;;;;5049973;28;20215;-57
2022/12/05 09:06:19;;;;;;;22.77;13.73;;;5.00;99.90;;;;;;5049208;28;20303;-55
2022/12/05 09:08:47;;;;;;;19.87;13.53;;;5.00;99.90;;;;;;5048401;28;20319;-55
2022/12/05 09:11:17;;;;;;;22.30;13.90;;;5.10;99.90;;;;;;5050371;28;20316;-56
2022/12/05 09:13:45;;;;;;;23.80;13.07;;;5.10;99.90;;;;;;5031754;28;20249;-55
2022/12/05 09:16:21;;;;;;;26.23;13.87;;;5.20;99.90;;;;;;5042222;28;20196;-56
2022/12/05 09:18:49;;;;;;;21.17;12.63;;;5.20;99.90;;;;;;5050203;28;20208;-65
2022/12/05 09:21:18;;;;;;;27.30;14.50;;;5.10;99.90;;;;;;5048256;28;20207;-56
2022/12/05 09:23:46;;;;;;;20.90;13.30;;;5.10;99.90;;;;;;5048807;28;20232;-57
2022/12/05 09:26:15;;;;;;;22.10;13.47;;;5.10;99.90;;;;;;5049604;28;20196;-57
2022/12/05 09:28:43;;;;;;;23.50;13.53;;;5.20;99.90;;;;;;5047659;28;20245;-55
2022/12/05 09:31:13;;;;;;;21.30;13.07;;;5.10;99.90;;;;;;5051053;28;20761;-55
2022/12/05 09:33:41;;;;;;;23.30;13.33;;;5.20;99.90;;;;;;5047848;28;20224;-56
2022/12/05 09:36:17;;;;;;;20.40;13.30;;;5.20;99.90;;;;;;5046174;28;20776;-56
2022/12/05 09:38:45;;;;;;;20.93;12.27;;;5.20;99.90;;;;;;5047703;28;20217;-56
2022/12/05 09:44:44;;;;;;;17.80;11.57;;;5.30;99.90;;;;;;5051555;28;20206;-56
2022/12/05 09:47:35;;;;;;;19.30;11.60;;;5.10;99.90;;;;;;5046133;28;20212;-57
2022/12/05 09:50:22;;;;;;;18.37;11.63;;;5.20;99.90;;;;;;5026684;28;20299;-57
2022/12/05 09:53:24;;;;;;;17.37;12.00;;;5.20;99.90;;;;;;5049378;28;20268;-57
2022/12/05 09:55:56;;;;;;;17.07;10.87;;;5.20;99.90;;;;;;5045943;28;20211;-56
2022/12/05 09:58:44;;;;;;;18.70;11.40;;;5.30;99.90;;;;;;5047040;28;20286;-55
2022/12/05 10:01:40;;;;;;;16.30;10.90;;;5.30;99.90;;;;;;5030431;28;20292;-61
2022/12/05 10:04:26;;;;;;;15.87;9.93;;;5.30;99.90;;;;;;5047529;28;20215;-56
2022/12/05 10:06:58;;;;;;;18.40;10.20;;;5.30;99.90;;;;;;5047541;28;20304;-56
2022/12/05 10:09:38;;;;;;;16.27;10.23;;;5.30;99.90;;;;;;5049309;28;20564;-56
2022/12/05 10:12:53;;;;;;;16.70;11.03;;;5.30;99.90;;;;;;5048620;28;20314;-56
2022/12/05 10:15:31;;;;;;;15.53;10.90;;;5.20;99.90;;;;;;5035454;28;20212;-62
2022/12/05 10:18:09;;;;;;;12.77;9.37;;;5.40;99.90;;;;;;5052987;28;20200;-56
2022/12/05 10:20:55;;;;;;;15.63;10.37;;;5.40;99.90;;;;;;5047544;28;20246;-56
2022/12/05 10:23:28;;;;;;;16.93;10.67;;;5.50;99.90;;;;;;5049477;28;20222;-57
2022/12/05 10:26:16;;;;;;;15.97;10.70;;;5.50;99.90;;;;;;5046307;28;20211;-59
2022/12/05 10:28:59;;;;;;;13.53;9.30;;;5.50;99.90;;;;;;5048441;28;20259;-63
2022/12/05 10:31:32;;;;;;;12.67;9.17;;;5.50;99.90;;;;;;5047516;28;21175;-57
2022/12/05 10:34:11;;;;;;;13.57;9.27;;;5.40;99.90;;;;;;5028454;28;20621;-57
2022/12/05 10:36:37;;;;;;;14.30;9.50;;;5.40;99.90;;;;;;5051694;28;20219;-56
2022/12/05 10:39:05;;;;;;;14.00;8.73;;;5.40;99.90;;;;;;5046209;28;20566;-56
2022/12/05 10:41:37;;;;;;;13.93;9.30;;;5.40;99.90;;;;;;5046734;28;20234;-57
2022/12/05 10:44:04;;;;;;;12.10;8.53;;;5.40;99.90;;;;;;5050482;28;20245;-56
2022/12/05 10:46:31;;;;;;;14.07;8.87;;;5.40;99.90;;;;;;5047603;28;20195;-56
2022/12/05 10:48:58;;;;;;;10.97;7.97;;;5.40;99.90;;;;;;5049276;28;20278;-56
2022/12/05 10:51:28;;;;;;;9.57;7.77;;;5.40;99.90;;;;;;5051890;28;20202;-57
2022/12/05 10:54:12;;;;;;;11.23;7.77;;;5.50;99.90;;;;;;5049244;28;20208;-55
2022/12/05 10:56:47;;;;;;;13.33;8.23;;;5.50;99.90;;;;;;5050576;28;20644;-55
2022/12/05 10:59:23;;;;;;;12.03;8.30;;;5.50;99.90;;;;;;5067173;28;20222;-55
2022/12/05 11:01:57;;;;;;;16.30;9.23;;;5.50;99.90;;;;;;5057072;28;20247;-59
2022/12/05 11:04:29;;;;;;;11.63;7.97;;;5.60;99.90;;;;;;5051590;28;20264;-56
2022/12/05 11:07:00;;;;;;;11.30;8.37;;;5.60;99.90;;;;;;5053577;28;20317;-58
2022/12/05 11:09:32;;;;;;;12.23;8.40;;;5.60;99.90;;;;;;5057577;28;20232;-55
2022/12/05 11:12:21;;;;;;;12.40;8.33;;;5.70;99.90;;;;;;5051091;28;20228;-55
2022/12/05 11:15:00;;;;;;;13.00;8.20;;;5.60;99.90;;;;;;5054340;28;20198;-56
2022/12/05 11:17:36;;;;;;;10.27;8.03;;;5.60;99.90;;;;;;5056409;28;20250;-55
2022/12/05 11:20:23;;;;;;;11.10;7.67;;;5.60;99.90;;;;;;5053738;28;20722;-57
2022/12/05 11:22:52;;;;;;;11.20;7.10;;;5.50;99.90;;;;;;5054332;28;20238;-56
2022/12/05 11:25:30;;;;;;;10.40;7.63;;;5.50;99.90;;;;;;5054835;28;20208;-56
2022/12/05 11:28:16;;;;;;;11.20;8.13;;;5.60;99.90;;;;;;5054936;28;20244;-56
2022/12/05 11:31:19;;;;;;;12.03;7.33;;;5.60;99.90;;;;;;5053670;28;20653;-56
2022/12/05 11:34:09;;;;;;;12.67;7.67;;;5.60;99.90;;;;;;5056293;28;20296;-56
2022/12/05 11:36:44;;;;;;;10.77;7.10;;;5.60;99.90;;;;;;5050527;28;20206;-56
2022/12/05 11:39:13;;;;;;;11.00;7.47;;;5.60;99.90;;;;;;5053266;28;20722;-55
2022/12/05 11:42:02;;;;;;;9.47;6.87;;;5.60;99.90;;;;;;5055261;28;20215;-55
2022/12/05 11:44:47;;;;;;;12.37;7.13;;;5.50;99.90;;;;;;5053344;28;20235;-56
2022/12/05 11:47:41;;;;;;;9.40;6.63;;;5.50;99.90;;;;;;5054317;28;20220;-56
2022/12/05 11:50:41;;;;;;;9.33;6.87;;;5.60;99.90;;;;;;5052776;28;20208;-56
2022/12/05 11:53:46;;;;;;;10.17;6.77;;;5.70;99.90;;;;;;5055330;28;20209;-57
2022/12/05 11:56:28;;;;;;;10.33;6.67;;;5.60;99.90;;;;;;5053105;28;20302;-56
2022/12/05 11:59:18;;;;;;;10.60;6.90;;;5.50;99.90;;;;;;5055792;28;20209;-56
2022/12/05 12:02:01;;;;;;;10.43;7.20;;;5.60;99.90;;;;;;5056801;28;20283;-56
2022/12/05 12:04:55;;;;;;;9.63;6.80;;;5.70;99.90;;;;;;5053843;28;20210;-56
2022/12/05 12:07:48;;;;;;;11.17;6.90;;;5.70;99.90;;;;;;5054350;28;20306;-56
2022/12/05 12:10:43;;;;;;;11.13;6.33;;;5.70;99.90;;;;;;5054952;28;20233;-56
2022/12/05 12:13:38;;;;;;;9.83;6.17;;;5.70;99.90;;;;;;5055542;28;20228;-56
2022/12/05 12:16:16;;;;;;;9.90;7.40;;;5.70;99.90;;;;;;5070152;28;20258;-57
2022/12/05 12:18:54;;;;;;;10.93;6.83;;;5.70;99.90;;;;;;5053350;28;20195;-56
2022/12/05 12:21:50;;;;;;;10.43;7.00;;;5.70;99.90;;;;;;5053521;28;20215;-55
2022/12/05 12:25:01;;;;;;;10.10;7.00;;;5.70;99.90;;;;;;5051027;28;20215;-56
2022/12/05 12:28:04;;;;;;;12.13;7.70;;;5.70;99.90;;;;;;5050381;28;20236;-55
2022/12/05 12:30:58;;;;;;;10.80;7.13;;;5.80;99.90;;;;;;5069403;28;20623;-56
2022/12/05 12:33:40;;;;;;;9.37;6.90;;;5.70;99.90;;;;;;5054759;28;20204;-56
2022/12/05 12:36:26;;;;;;;9.87;7.33;;;5.80;99.90;;;;;;5052505;28;20211;-55
2022/12/05 12:39:25;;;;;;;9.87;7.03;;;5.80;99.90;;;;;;5051022;28;20664;-56
2022/12/05 12:41:57;;;;;;;9.67;6.83;;;5.80;99.90;;;;;;5054495;28;20204;-55
2022/12/05 12:44:42;;;;;;;9.97;6.97;;;5.70;99.90;;;;;;5052648;28;20223;-57
2022/12/05 12:47:36;;;;;;;12.33;7.40;;;5.80;99.90;;;;;;5053102;28;20206;-56
2022/12/05 12:50:25;;;;;;;10.37;7.03;;;5.80;99.90;;;;;;5051573;28;20243;-56
2022/12/05 12:53:27;;;;;;;12.27;7.87;;;5.70;99.90;;;;;;5070574;28;20281;-56
2022/12/05 12:56:20;;;;;;;9.70;7.13;;;5.70;99.90;;;;;;5056488;28;20658;-56
2022/12/05 12:59:13;;;;;;;11.20;7.00;;;5.80;99.90;;;;;;5056914;28;20289;-56
2022/12/05 13:01:52;;;;;;;12.77;7.13;;;5.80;99.90;;;;;;5056569;28;20211;-56
2022/12/05 13:04:57;;;;;;;10.47;7.07;;;5.80;99.90;;;;;;5052840;28;20260;-56
2022/12/05 13:07:46;;;;;;;10.33;7.27;;;5.80;99.90;;;;;;5022753;28;20209;-56
2022/12/05 13:10:24;;;;;;;12.13;7.70;;;5.80;99.90;;;;;;5034742;28;20227;-56
2022/12/05 13:12:52;;;;;;;10.57;7.37;;;5.70;99.90;;;;;;5033321;28;20301;-56
2022/12/05 13:15:28;;;;;;;9.97;7.40;;;5.90;99.90;;;;;;5032553;28;20243;-56
2022/12/05 13:17:56;;;;;;;11.73;8.00;;;5.90;99.90;;;;;;5015609;28;20669;-56
2022/12/05 13:20:26;;;;;;;9.20;7.50;;;6.00;99.90;;;;;;5031003;28;20704;-57
2022/12/05 13:22:54;;;;;;;11.40;8.10;;;6.00;99.90;;;;;;5033753;28;20249;-56
2022/12/05 13:25:25;;;;;;;10.40;7.37;;;6.00;99.90;;;;;;5034757;28;20224;-57
2022/12/05 13:27:57;;;;;;;11.60;7.70;;;6.10;99.90;;;;;;5033635;28;20260;-59